Time;durP1;ratioP1;P1;durP2;ratioP2;P2;SDS_P1;SDS_P2;PMS_P1;PMS_P2;Temp;Humidity;BMP_temperature;BMP_pressure;BME280_temperature;BME280_humidity;BME280_pressure;Samples;Min_cycle;Max_cycle;Signal;HPM_P1;HPM_P2
2023/06/27 00:03:18;;;;;;;8.43;4.50;;;;;;;;;;21084968;28;20397;-68
2023/06/27 00:13:20;;;;;;;8.77;4.68;;;;;;;;;;21084035;28;20044;-68
2023/06/27 00:23:24;;;;;;;8.25;4.47;;;;;;;;;;21083401;28;20040;-68
2023/06/27 00:33:25;;;;;;;7.97;5.38;;;;;;;;;;21082144;28;20055;-69
2023/06/27 00:43:29;;;;;;;10.77;4.88;;;;;;;;;;21082119;28;20055;-69
2023/06/27 00:53:30;;;;;;;11.65;5.45;;;;;;;;;;21081551;28;20040;-68
2023/06/27 01:03:32;;;;;;;9.07;5.47;;;;;;;;;;21080104;28;20071;-69
2023/06/27 01:13:38;;;;;;;8.65;5.30;;;;;;;;;;21080691;28;20103;-68
2023/06/27 01:23:55;;;;;;;11.68;4.55;;;;;;;;;;21080229;28;20048;-68
2023/06/27 01:33:59;;;;;;;6.60;4.15;;;;;;;;;;21079138;28;20056;-68
2023/06/27 01:44:04;;;;;;;5.28;3.78;;;;;;;;;;21079436;28;20059;-68
2023/06/27 01:54:05;;;;;;;7.23;4.07;;;;;;;;;;21079155;28;20054;-67
2023/06/27 02:04:06;;;;;;;7.43;3.75;;;;;;;;;;21078618;28;20040;-66
2023/06/27 02:14:07;;;;;;;5.80;4.75;;;;;;;;;;21084435;28;20424;-69
2023/06/27 02:24:08;;;;;;;7.95;4.75;;;;;;;;;;21091588;28;20047;-68
2023/06/27 02:34:09;;;;;;;8.15;3.88;;;;;;;;;;21091612;28;20127;-68
2023/06/27 02:44:10;;;;;;;10.82;4.30;;;;;;;;;;21091408;28;20072;-68
2023/06/27 02:54:11;;;;;;;6.85;3.95;;;;;;;;;;21090745;28;20040;-68
2023/06/27 03:04:12;;;;;;;7.60;3.90;;;;;;;;;;21089949;28;20553;-68
2023/06/27 03:14:18;;;;;;;6.93;3.85;;;;;;;;;;21089118;28;20489;-68
2023/06/27 03:24:19;;;;;;;6.25;3.85;;;;;;;;;;21087461;28;20053;-68
2023/06/27 03:34:21;;;;;;;5.80;3.33;;;;;;;;;;21086638;28;20054;-68
2023/06/27 03:44:22;;;;;;;5.72;4.10;;;;;;;;;;21086607;28;20040;-68
2023/06/27 03:54:23;;;;;;;7.22;3.90;;;;;;;;;;21085946;28;20051;-68
2023/06/27 04:04:24;;;;;;;4.00;3.42;;;;;;;;;;21084816;28;20374;-68
2023/06/27 04:14:25;;;;;;;5.65;3.35;;;;;;;;;;21084328;28;20538;-68
2023/06/27 04:24:26;;;;;;;4.88;3.63;;;;;;;;;;21083752;28;20040;-69
2023/06/27 04:34:27;;;;;;;6.90;4.05;;;;;;;;;;21081432;28;20059;-68
2023/06/27 04:44:28;;;;;;;7.07;3.55;;;;;;;;;;21081912;28;20182;-69
2023/06/27 04:54:29;;;;;;;6.15;3.47;;;;;;;;;;21080251;28;20075;-69
2023/06/27 05:04:30;;;;;;;8.07;3.88;;;;;;;;;;21080721;28;20477;-68
2023/06/27 05:14:32;;;;;;;4.57;3.05;;;;;;;;;;21079192;28;20074;-69
2023/06/27 05:24:33;;;;;;;5.45;3.45;;;;;;;;;;21079688;28;20040;-68
2023/06/27 05:34:34;;;;;;;7.45;3.83;;;;;;;;;;21080082;28;20398;-68
2023/06/27 05:44:36;;;;;;;5.65;3.63;;;;;;;;;;21077976;28;20044;-68
2023/06/27 05:54:37;;;;;;;12.00;3.75;;;;;;;;;;21094006;28;20113;-68
2023/06/27 06:04:38;;;;;;;6.40;3.60;;;;;;;;;;21094552;28;20043;-68
2023/06/27 06:14:39;;;;;;;5.10;3.03;;;;;;;;;;21093488;28;20349;-67
2023/06/27 06:24:40;;;;;;;5.38;3.50;;;;;;;;;;21092724;28;20507;-66
2023/06/27 06:34:41;;;;;;;5.57;3.55;;;;;;;;;;21090688;28;20083;-67
2023/06/27 06:44:44;;;;;;;8.70;3.63;;;;;;;;;;21089744;28;20080;-68
2023/06/27 06:54:46;;;;;;;7.30;4.00;;;;;;;;;;21088707;28;20040;-68
2023/06/27 07:04:47;;;;;;;4.30;3.38;;;;;;;;;;21088018;28;20454;-67
2023/06/27 07:14:49;;;;;;;8.50;3.88;;;;;;;;;;21088994;28;20497;-67
2023/06/27 07:24:50;;;;;;;7.32;3.72;;;;;;;;;;21088675;28;20048;-67
2023/06/27 07:34:51;;;;;;;7.20;3.50;;;;;;;;;;21086045;28;20447;-67
2023/06/27 07:44:53;;;;;;;8.57;4.03;;;;;;;;;;21085848;28;20523;-67
2023/06/27 07:54:54;;;;;;;12.57;3.80;;;;;;;;;;21085424;28;20040;-68
2023/06/27 08:04:55;;;;;;;6.35;3.63;;;;;;;;;;21084270;28;20039;-67
2023/06/27 08:14:56;;;;;;;8.23;3.63;;;;;;;;;;21083347;28;20397;-67
2023/06/27 08:24:57;;;;;;;7.10;3.92;;;;;;;;;;21083097;28;20481;-67
2023/06/27 08:34:58;;;;;;;7.15;3.60;;;;;;;;;;21081720;28;20466;-69
2023/06/27 08:44:59;;;;;;;7.65;3.97;;;;;;;;;;21081709;28;20488;-68
2023/06/27 08:55:02;;;;;;;6.68;3.35;;;;;;;;;;21080478;28;20047;-68
2023/06/27 09:05:04;;;;;;;7.82;3.67;;;;;;;;;;21079186;28;20123;-68
2023/06/27 09:15:05;;;;;;;10.30;4.25;;;;;;;;;;21080206;28;20036;-68
2023/06/27 09:25:16;;;;;;;6.57;3.40;;;;;;;;;;21088163;28;20424;-68
2023/06/27 09:35:17;;;;;;;7.95;3.60;;;;;;;;;;21096145;28;20123;-67
2023/06/27 09:45:18;;;;;;;6.00;3.75;;;;;;;;;;21096040;28;20054;-62
2023/06/27 09:55:21;;;;;;;7.65;3.92;;;;;;;;;;21030216;28;20040;-61
2023/06/27 10:05:22;;;;;;;10.85;4.40;;;;;;;;;;20997149;28;20044;-64
2023/06/27 10:15:23;;;;;;;8.95;4.00;;;;;;;;;;21005031;28;20048;-66
2023/06/27 10:25:26;;;;;;;7.40;4.18;;;;;;;;;;20924753;28;20045;-67
2023/06/27 10:35:27;;;;;;;107.47;12.32;;;;;;;;;;20932018;28;20059;-63
2023/06/27 10:45:28;;;;;;;6.50;3.83;;;;;;;;;;21007112;28;20145;-63
2023/06/27 10:55:30;;;;;;;8.70;4.75;;;;;;;;;;20946878;28;20409;-62
2023/06/27 11:05:38;;;;;;;6.22;4.35;;;;;;;;;;20966499;28;20041;-68
2023/06/27 11:15:39;;;;;;;11.75;4.60;;;;;;;;;;20996708;28;20056;-65
2023/06/27 11:25:44;;;;;;;8.18;4.40;;;;;;;;;;20997350;28;20123;-63
2023/06/27 11:35:45;;;;;;;8.88;5.22;;;;;;;;;;20994497;28;20056;-67
2023/06/27 11:45:50;;;;;;;12.00;5.20;;;;;;;;;;21001821;28;20044;-71
2023/06/27 11:55:51;;;;;;;;;;;;;;;;;;21002515;28;20064;-63
2023/06/27 12:05:54;;;;;;;9.25;4.47;;;;;;;;;;21000319;28;19920;-63
2023/06/27 12:15:55;;;;;;;11.60;4.63;;;;;;;;;;20999064;28;20339;-64
2023/06/27 12:25:57;;;;;;;7.72;4.70;;;;;;;;;;20998427;28;20047;-65
2023/06/27 12:35:58;;;;;;;8.50;4.90;;;;;;;;;;20996751;28;20118;-65
2023/06/27 12:46:03;;;;;;;8.60;4.47;;;;;;;;;;20998407;28;20347;-64
2023/06/27 12:56:05;;;;;;;6.95;4.10;;;;;;;;;;20998037;28;20101;-63
2023/06/27 13:06:06;;;;;;;9.90;4.65;;;;;;;;;;20996971;28;20045;-64
2023/06/27 13:16:08;;;;;;;15.15;6.18;;;;;;;;;;20996620;28;20045;-64
2023/06/27 13:26:09;;;;;;;11.45;4.63;;;;;;;;;;20996520;28;20379;-65
2023/06/27 13:36:11;;;;;;;6.57;5.18;;;;;;;;;;20993639;28;20092;-64
2023/06/27 13:46:12;;;;;;;11.32;5.10;;;;;;;;;;20995158;28;20036;-64
2023/06/27 13:56:14;;;;;;;7.70;5.22;;;;;;;;;;20995009;28;20045;-65
2023/06/27 14:06:15;;;;;;;8.40;5.10;;;;;;;;;;20993408;28;20048;-64
2023/06/27 14:16:16;;;;;;;8.80;4.68;;;;;;;;;;21009848;28;20049;-64
2023/06/27 14:26:17;;;;;;;6.60;4.75;;;;;;;;;;21009156;28;20032;-65
2023/06/27 14:36:18;;;;;;;7.15;5.18;;;;;;;;;;21006226;28;20056;-65
2023/06/27 14:46:19;;;;;;;8.48;5.10;;;;;;;;;;21006253;28;20120;-65
2023/06/27 14:56:20;;;;;;;11.05;5.38;;;;;;;;;;21005586;28;20041;-65
2023/06/27 15:06:21;;;;;;;8.80;5.45;;;;;;;;;;21006170;28;20524;-64
2023/06/27 15:16:23;;;;;;;9.98;5.63;;;;;;;;;;21005657;28;20055;-64
2023/06/27 15:26:24;;;;;;;13.20;7.90;;;;;;;;;;21003927;28;20048;-65
2023/06/27 15:36:25;;;;;;;14.88;9.07;;;;;;;;;;21003472;28;20055;-61
2023/06/27 15:46:26;;;;;;;19.88;11.35;;;;;;;;;;21002721;28;20048;-62
2023/06/27 15:56:27;;;;;;;15.65;10.05;;;;;;;;;;21000113;28;20040;-59
2023/06/27 16:06:30;;;;;;;10.65;8.00;;;;;;;;;;21000048;28;20079;-60
2023/06/27 16:16:31;;;;;;;9.40;6.80;;;;;;;;;;20999157;28;20055;-60
2023/06/27 16:26:34;;;;;;;12.45;8.15;;;;;;;;;;20996898;28;20078;-60
2023/06/27 16:36:35;;;;;;;11.20;8.30;;;;;;;;;;20997520;28;20064;-62
2023/06/27 16:46:37;;;;;;;13.07;8.38;;;;;;;;;;20997973;28;20051;-61
2023/06/27 16:56:39;;;;;;;14.85;11.07;;;;;;;;;;20997550;28;20067;-62
2023/06/27 17:06:40;;;;;;;16.27;10.45;;;;;;;;;;20994985;28;20124;-61
2023/06/27 17:16:41;;;;;;;17.63;13.05;;;;;;;;;;20996543;28;20434;-60
2023/06/27 17:26:42;;;;;;;23.83;14.52;;;;;;;;;;20995890;28;20076;-60
2023/06/27 17:36:43;;;;;;;20.13;12.20;;;;;;;;;;20994848;28;20080;-61
2023/06/27 17:46:44;;;;;;;16.13;11.18;;;;;;;;;;21004066;28;20079;-65
2023/06/27 17:56:45;;;;;;;12.25;9.45;;;;;;;;;;21010301;28;20079;-66
2023/06/27 18:06:47;;;;;;;14.02;9.55;;;;;;;;;;21009167;28;20048;-64
2023/06/27 18:16:48;;;;;;;11.93;8.13;;;;;;;;;;21008416;28;20053;-64
2023/06/27 18:26:49;;;;;;;14.65;8.85;;;;;;;;;;21008282;28;20136;-65
2023/06/27 18:36:50;;;;;;;13.40;9.50;;;;;;;;;;21007450;28;20057;-65
2023/06/27 18:46:52;;;;;;;17.50;12.18;;;;;;;;;;21007485;28;20032;-64
2023/06/27 18:56:53;;;;;;;15.57;10.80;;;;;;;;;;21006614;28;20405;-64
2023/06/27 19:06:55;;;;;;;16.08;11.45;;;;;;;;;;21004770;28;20393;-66
2023/06/27 19:16:56;;;;;;;15.82;10.77;;;;;;;;;;21002991;28;20036;-65
2023/06/27 19:26:57;;;;;;;16.95;12.25;;;;;;;;;;21001683;28;20040;-64
2023/06/27 19:36:58;;;;;;;19.88;12.63;;;;;;;;;;21001719;28;20052;-64
2023/06/27 19:46:59;;;;;;;17.50;13.80;;;;;;;;;;21003384;28;20456;-65
2023/06/27 19:57:04;;;;;;;15.55;11.57;;;;;;;;;;21000383;28;20498;-64
2023/06/27 20:07:05;;;;;;;16.48;11.00;;;;;;;;;;20999305;28;20040;-64
2023/06/27 20:17:08;;;;;;;19.30;13.93;;;;;;;;;;20999908;28;20402;-64
2023/06/27 20:27:09;;;;;;;13.25;9.73;;;;;;;;;;20999216;28;20123;-65
2023/06/27 20:37:10;;;;;;;14.45;10.43;;;;;;;;;;20997469;28;20086;-65
2023/06/27 20:47:12;;;;;;;29.60;21.88;;;;;;;;;;20998288;28;20094;-66
2023/06/27 20:57:13;;;;;;;20.55;12.75;;;;;;;;;;20997478;28;20040;-65
2023/06/27 21:07:14;;;;;;;17.85;11.45;;;;;;;;;;20996986;28;20084;-65
2023/06/27 21:17:16;;;;;;;14.70;10.10;;;;;;;;;;20995631;28;20045;-64
2023/06/27 21:27:17;;;;;;;14.38;9.63;;;;;;;;;;20994253;28;20128;-65
2023/06/27 21:37:18;;;;;;;12.63;9.55;;;;;;;;;;20993806;28;20052;-64
2023/06/27 21:47:20;;;;;;;9.88;7.13;;;;;;;;;;20993682;28;20087;-65
2023/06/27 21:57:21;;;;;;;10.68;6.85;;;;;;;;;;20993627;28;20048;-64
2023/06/27 22:07:22;;;;;;;9.55;7.10;;;;;;;;;;20995649;28;20044;-64
2023/06/27 22:17:23;;;;;;;12.98;9.48;;;;;;;;;;20994376;28;20037;-65
2023/06/27 22:27:24;;;;;;;11.68;9.40;;;;;;;;;;20993903;28;20374;-65
2023/06/27 22:37:25;;;;;;;14.77;9.80;;;;;;;;;;21007129;28;20076;-64
2023/06/27 22:47:26;;;;;;;9.93;7.00;;;;;;;;;;21007571;28;20045;-64
2023/06/27 22:57:27;;;;;;;10.95;6.50;;;;;;;;;;21007288;28;20508;-65
2023/06/27 23:07:29;;;;;;;8.15;6.03;;;;;;;;;;21004891;28;20051;-64
2023/06/27 23:17:33;;;;;;;6.97;6.00;;;;;;;;;;21005605;28;20072;-65
2023/06/27 23:27:35;;;;;;;7.80;5.30;;;;;;;;;;21003531;28;20076;-65
2023/06/27 23:37:36;;;;;;;7.35;4.78;;;;;;;;;;21002791;28;20083;-65
2023/06/27 23:47:37;;;;;;;9.05;5.45;;;;;;;;;;21001759;28;20123;-64
2023/06/27 23:57:38;;;;;;;7.32;4.78;;;;;;;;;;21002166;28;20036;-64
